Time,TemperatureF,DewpointF,PressureIn,WindDirection,WindDirectionDegrees,WindSpeedMPH,WindSpeedGustMPH,Humidity,HourlyPrecipIn,Conditions,Clouds,dailyrainin,SoftwareType,DateUTC
2013-06-20 00:01:00,54.0,32.0,-100.00,ESE,106,3.0,7.0,43,-99.99,,,-99.99,,2013-06-20 07:01:00,
2013-06-20 00:12:00,52.0,31.0,-100.00,SSW,196,5.0,9.0,44,-99.99,,,-99.99,,2013-06-20 07:12:00,
2013-06-20 00:22:00,52.0,31.0,-100.00,SSW,196,5.0,9.0,44,-99.99,,,-99.99,,2013-06-20 07:22:00,
2013-06-20 00:34:00,52.0,31.0,-100.00,SSW,196,5.0,9.0,44,-99.99,,,-99.99,,2013-06-20 07:34:00,
2013-06-20 00:44:00,48.0,31.0,-100.00,North,-999,-999.0,-999.0,51,-99.99,,,-99.99,,2013-06-20 07:44:00,
2013-06-20 00:53:00,48.0,31.0,-100.00,East,100,2.0,7.0,51,-99.99,,,-99.99,,2013-06-20 07:53:00,
2013-06-20 01:02:00,47.0,30.0,-100.00,East,88,5.0,7.0,51,-99.99,,,-99.99,,2013-06-20 08:02:00,
2013-06-20 01:11:00,47.0,30.0,-100.00,East,88,5.0,7.0,51,-99.99,,,-99.99,,2013-06-20 08:11:00,
2013-06-20 01:22:00,46.0,28.0,-100.00,East,79,6.0,9.0,50,-99.99,,,-99.99,,2013-06-20 08:22:00,
2013-06-20 01:34:00,46.0,28.0,-100.00,East,79,6.0,9.0,50,-99.99,,,-99.99,,2013-06-20 08:34:00,
2013-06-20 01:52:00,43.0,31.0,-100.00,SE,136,4.0,6.0,62,-99.99,,,-99.99,,2013-06-20 08:52:00,
2013-06-20 02:01:00,43.0,31.0,-100.00,SE,136,4.0,6.0,62,-99.99,,,-99.99,,2013-06-20 09:01:00,
2013-06-20 02:21:00,42.0,31.0,-100.00,South,171,3.0,5.0,64,-99.99,,,-99.99,,2013-06-20 09:21:00,
2013-06-20 02:33:00,43.0,31.0,-100.00,SE,130,2.0,4.0,62,-99.99,,,-99.99,,2013-06-20 09:33:00,
2013-06-20 02:42:00,43.0,31.0,-100.00,SE,130,2.0,4.0,62,-99.99,,,-99.99,,2013-06-20 09:42:00,
2013-06-20 02:52:00,42.0,30.0,-100.00,SE,143,1.0,3.0,61,-99.99,,,-99.99,,2013-06-20 09:52:00,
2013-06-20 03:01:00,42.0,28.0,-100.00,SE,137,1.0,3.0,58,-99.99,,,-99.99,,2013-06-20 10:01:00,
2013-06-20 03:11:00,42.0,28.0,-100.00,SE,137,1.0,3.0,58,-99.99,,,-99.99,,2013-06-20 10:11:00,
2013-06-20 03:22:00,42.0,28.0,-100.00,ENE,58,2.0,4.0,58,-99.99,,,-99.99,,2013-06-20 10:22:00,
2013-06-20 03:33:00,42.0,28.0,-100.00,ENE,58,2.0,4.0,58,-99.99,,,-99.99,,2013-06-20 10:33:00,
2013-06-20 03:43:00,42.0,28.0,-100.00,ENE,58,2.0,4.0,58,-99.99,,,-99.99,,2013-06-20 10:43:00,
2013-06-20 03:53:00,40.0,29.0,-100.00,North,-999,-999.0,-999.0,66,-99.99,,,-99.99,,2013-06-20 10:53:00,
2013-06-20 04:02:00,40.0,30.0,-100.00,North,-999,0.0,0.0,66,-99.99,,,-99.99,,2013-06-20 11:02:00,
2013-06-20 04:11:00,40.0,30.0,-100.00,North,-999,0.0,0.0,66,-99.99,,,-99.99,,2013-06-20 11:11:00,
2013-06-20 04:22:00,40.0,30.0,-100.00,North,-999,0.0,0.0,66,-99.99,,,-99.99,,2013-06-20 11:22:00,
2013-06-20 04:34:00,40.0,29.0,-100.00,North,-999,-999.0,-999.0,66,-99.99,,,-99.99,,2013-06-20 11:34:00,
2013-06-20 04:43:00,40.0,30.0,-100.00,SE,143,1.0,3.0,66,-99.99,,,-99.99,,2013-06-20 11:43:00,
2013-06-20 04:53:00,38.0,29.0,-100.00,ESE,123,4.0,5.0,70,-99.99,,,-99.99,,2013-06-20 11:53:00,
2013-06-20 05:02:00,38.0,29.0,-100.00,ESE,123,4.0,5.0,70,-99.99,,,-99.99,,2013-06-20 12:02:00,
2013-06-20 05:11:00,38.0,29.0,-100.00,ESE,123,4.0,5.0,70,-99.99,,,-99.99,,2013-06-20 12:11:00,
2013-06-20 05:22:00,38.0,29.0,-100.00,ESE,123,4.0,5.0,70,-99.99,,,-99.99,,2013-06-20 12:22:00,
2013-06-20 05:34:00,37.0,28.0,-100.00,SE,124,2.0,4.0,71,-99.99,,,-99.99,,2013-06-20 12:34:00,
2013-06-20 05:43:00,37.0,28.0,-100.00,SE,124,2.0,4.0,71,-99.99,,,-99.99,,2013-06-20 12:43:00,
2013-06-20 05:53:00,35.0,29.0,-100.00,SSE,154,1.0,4.0,78,-99.99,,,-99.99,,2013-06-20 12:53:00,
2013-06-20 06:01:00,35.0,29.0,-100.00,SSE,154,1.0,4.0,78,-99.99,,,-99.99,,2013-06-20 13:01:00,
2013-06-20 06:11:00,35.0,28.0,-100.00,ESE,116,0.0,2.0,75,-99.99,,,-99.99,,2013-06-20 13:11:00,
2013-06-20 06:22:00,35.0,28.0,-100.00,ESE,116,0.0,2.0,75,-99.99,,,-99.99,,2013-06-20 13:22:00,
2013-06-20 06:33:00,35.0,28.0,-100.00,ESE,116,0.0,2.0,75,-99.99,,,-99.99,,2013-06-20 13:33:00,
2013-06-20 06:42:00,37.0,26.0,-100.00,ENE,73,3.0,5.0,63,-99.99,,,-99.99,,2013-06-20 13:42:00,
2013-06-20 06:53:00,37.0,26.0,-100.00,ENE,73,3.0,5.0,63,-99.99,,,-99.99,,2013-06-20 13:53:00,
2013-06-20 07:01:00,37.0,26.0,-100.00,ENE,73,3.0,5.0,63,-99.99,,,-99.99,,2013-06-20 14:01:00,
2013-06-20 07:11:00,37.0,26.0,-100.00,ENE,73,3.0,5.0,63,-99.99,,,-99.99,,2013-06-20 14:11:00,
2013-06-20 07:22:00,42.0,30.0,-100.00,NNE,27,0.0,3.0,63,-99.99,,,-99.99,,2013-06-20 14:22:00,
2013-06-20 07:32:00,42.0,30.0,-100.00,NNE,27,0.0,3.0,63,-99.99,,,-99.99,,2013-06-20 14:32:00,
2013-06-20 07:42:00,41.0,32.0,-100.00,SW,217,0.0,1.0,69,-99.99,,,-99.99,,2013-06-20 14:42:00,
2013-06-20 07:53:00,41.0,32.0,-100.00,SW,217,0.0,1.0,69,-99.99,,,-99.99,,2013-06-20 14:53:00,
2013-06-20 08:01:00,41.0,32.0,-100.00,SW,217,0.0,1.0,69,-99.99,,,-99.99,,2013-06-20 15:01:00,
2013-06-20 08:11:00,48.0,30.0,-100.00,SSW,193,0.0,1.0,49,-99.99,,,-99.99,,2013-06-20 15:11:00,
2013-06-20 08:22:00,48.0,30.0,-100.00,SSW,193,0.0,1.0,49,-99.99,,,-99.99,,2013-06-20 15:22:00,
2013-06-20 08:33:00,48.0,30.0,-100.00,SSW,193,0.0,1.0,49,-99.99,,,-99.99,,2013-06-20 15:33:00,
2013-06-20 08:43:00,48.0,30.0,-100.00,South,174,1.0,4.0,50,-99.99,,,-99.99,,2013-06-20 15:43:00,
2013-06-20 08:52:00,51.0,31.0,-100.00,SSE,168,0.0,3.0,46,-99.99,,,-99.99,,2013-06-20 15:52:00,
2013-06-20 09:01:00,51.0,31.0,-100.00,SSE,168,0.0,3.0,46,-99.99,,,-99.99,,2013-06-20 16:01:00,
2013-06-20 09:11:00,54.0,31.0,-100.00,NE,49,0.0,3.0,41,-99.99,,,-99.99,,2013-06-20 16:11:00,
2013-06-20 09:22:00,55.0,30.0,-100.00,SSW,209,0.0,4.0,38,-99.99,,,-99.99,,2013-06-20 16:22:00,
2013-06-20 09:33:00,55.0,30.0,-100.00,SSW,209,0.0,4.0,38,-99.99,,,-99.99,,2013-06-20 16:33:00,
2013-06-20 09:41:00,57.0,29.0,-100.00,WNW,287,0.0,3.0,34,-99.99,,,-99.99,,2013-06-20 16:41:00,
2013-06-20 09:42:00,56.0,32.0,-100.00,North,357,0.0,4.0,40,-99.99,,,-99.99,,2013-06-20 16:42:00,
2013-06-20 09:52:00,56.0,32.0,-100.00,North,357,0.0,4.0,40,-99.99,,,-99.99,,2013-06-20 16:52:00,
2013-06-20 10:01:00,56.0,30.0,-100.00,WNW,291,1.0,5.0,37,-99.99,,,-99.99,,2013-06-20 17:01:00,
2013-06-20 10:11:00,57.0,29.0,-100.00,WNW,287,0.0,3.0,34,-99.99,,,-99.99,,2013-06-20 17:11:00,
2013-06-20 10:21:00,57.0,29.0,-100.00,WNW,287,0.0,3.0,34,-99.99,,,-99.99,,2013-06-20 17:21:00,
2013-06-20 10:32:00,57.0,29.0,-100.00,WNW,287,0.0,3.0,34,-99.99,,,-99.99,,2013-06-20 17:32:00,
2013-06-20 10:53:00,60.0,28.0,-100.00,East,86,2.0,6.0,30,-99.99,,,-99.99,,2013-06-20 17:53:00,
2013-06-20 11:01:00,60.0,28.0,-100.00,East,86,2.0,6.0,30,-99.99,,,-99.99,,2013-06-20 18:01:00,
2013-06-20 11:11:00,60.0,28.0,-100.00,East,86,2.0,6.0,30,-99.99,,,-99.99,,2013-06-20 18:11:00,
2013-06-20 12:11:00,64.0,33.0,-100.00,North,-999,-999.0,-999.0,30,-99.99,,,-99.99,,2013-06-20 19:11:00,
2013-06-20 12:22:00,64.0,32.0,-100.00,WNW,285,1.0,7.0,30,-99.99,,,-99.99,,2013-06-20 19:22:00,
2013-06-20 12:33:00,64.0,31.0,-100.00,South,179,3.0,6.0,29,-99.99,,,-99.99,,2013-06-20 19:33:00,
2013-06-20 12:43:00,64.0,31.0,-100.00,South,179,3.0,6.0,29,-99.99,,,-99.99,,2013-06-20 19:43:00,
2013-06-20 12:52:00,65.0,30.0,-100.00,SSW,198,2.0,7.0,27,-99.99,,,-99.99,,2013-06-20 19:52:00,
2013-06-20 13:01:00,67.0,26.0,-100.00,WNW,291,1.0,6.0,21,-99.99,,,-99.99,,2013-06-20 20:01:00,
2013-06-20 13:11:00,67.0,26.0,-100.00,WNW,291,1.0,6.0,21,-99.99,,,-99.99,,2013-06-20 20:11:00,
2013-06-20 13:22:00,69.0,25.0,-100.00,WSW,251,2.0,6.0,19,-99.99,,,-99.99,,2013-06-20 20:22:00,
2013-06-20 13:33:00,69.0,25.0,-100.00,WSW,251,2.0,6.0,19,-99.99,,,-99.99,,2013-06-20 20:33:00,
2013-06-20 13:42:00,69.0,27.0,-100.00,WNW,299,3.0,8.0,21,-99.99,,,-99.99,,2013-06-20 20:42:00,
2013-06-20 13:52:00,69.0,27.0,-100.00,WNW,299,3.0,8.0,21,-99.99,,,-99.99,,2013-06-20 20:52:00,
2013-06-20 14:01:00,69.0,27.0,-100.00,WNW,299,3.0,8.0,21,-99.99,,,-99.99,,2013-06-20 21:01:00,
2013-06-20 17:11:00,69.0,25.0,-100.00,WSW,241,13.0,23.0,19,-99.99,,,-99.99,,2013-06-21 00:11:00,